Time;durP1;ratioP1;P1;durP2;ratioP2;P2;SDS_P1;SDS_P2;PMS_P1;PMS_P2;Temp;Humidity;BMP_temperature;BMP_pressure;BME280_temperature;BME280_humidity;BME280_pressure;Samples;Min_cycle;Max_cycle;Signal;HPM_P1;HPM_P2
2023/03/03 00:02:23;;;;;;;11.53;4.47;;;3.00;99.90;;;;;;5056712;28;20054;-61
2023/03/03 00:04:49;;;;;;;17.57;5.80;;;2.90;99.90;;;;;;5058222;28;20037;-60
2023/03/03 00:07:21;;;;;;;19.33;6.67;;;3.00;99.90;;;;;;5057281;28;20270;-73
2023/03/03 00:09:47;;;;;;;22.77;7.15;;;3.00;99.90;;;;;;5057762;28;20025;-60
2023/03/03 00:12:25;;;;;;;9.70;4.30;;;3.00;99.90;;;;;;5057062;28;20029;-60
2023/03/03 00:14:51;;;;;;;16.40;6.47;;;2.90;99.90;;;;;;5057866;28;20430;-71
2023/03/03 00:17:23;;;;;;;12.07;6.05;;;2.90;99.90;;;;;;5056887;28;20075;-61
2023/03/03 00:19:49;;;;;;;13.27;6.00;;;2.90;99.90;;;;;;5036436;28;20446;-60
2023/03/03 00:22:42;;;;;;;21.00;8.10;;;2.90;99.90;;;;;;5056617;28;20030;-71
2023/03/03 00:25:33;;;;;;;20.52;6.57;;;2.90;99.90;;;;;;5054313;28;20036;-60
2023/03/03 00:28:17;;;;;;;12.85;6.13;;;2.90;99.90;;;;;;5050539;28;20441;-60
2023/03/03 00:30:43;;;;;;;15.27;6.43;;;2.90;99.90;;;;;;5057650;28;20033;-60
2023/03/03 00:33:26;;;;;;;20.73;9.33;;;2.90;99.90;;;;;;5056455;28;20091;-61
2023/03/03 00:35:53;;;;;;;19.27;7.28;;;2.90;99.90;;;;;;5057237;28;20361;-60
2023/03/03 00:38:19;;;;;;;14.10;5.65;;;2.90;99.90;;;;;;5056606;28;20029;-71
2023/03/03 00:40:46;;;;;;;22.27;7.75;;;2.90;99.90;;;;;;5057022;28;20029;-61
2023/03/03 00:43:24;;;;;;;17.27;7.53;;;2.90;99.90;;;;;;5057345;28;20577;-71
2023/03/03 00:45:52;;;;;;;25.42;9.32;;;2.90;99.90;;;;;;5045517;28;20025;-70
2023/03/03 00:48:34;;;;;;;17.48;7.22;;;2.90;99.90;;;;;;5056951;28;20035;-61
2023/03/03 00:51:09;;;;;;;21.67;8.48;;;2.80;99.90;;;;;;5047198;28;20033;-60
2023/03/03 00:53:34;;;;;;;22.52;8.73;;;2.80;99.90;;;;;;5050565;28;20112;-61
2023/03/03 00:56:00;;;;;;;22.70;10.00;;;2.70;99.90;;;;;;5039167;28;20409;-60
2023/03/03 00:58:26;;;;;;;20.70;8.57;;;2.60;99.90;;;;;;5057156;28;20031;-61
2023/03/03 01:00:55;;;;;;;23.88;8.55;;;2.60;99.90;;;;;;5056010;28;20087;-73
2023/03/03 01:03:23;;;;;;;25.33;8.85;;;2.60;99.90;;;;;;5057085;28;20033;-61
2023/03/03 01:05:50;;;;;;;22.65;9.35;;;2.60;99.90;;;;;;5054247;28;20357;-60
2023/03/03 01:08:18;;;;;;;17.13;7.53;;;2.50;99.90;;;;;;5056211;28;20521;-61
2023/03/03 01:10:51;;;;;;;17.25;6.25;;;2.50;99.90;;;;;;5055101;28;20054;-60
2023/03/03 01:13:19;;;;;;;18.27;8.77;;;2.50;99.90;;;;;;5053571;28;20048;-61
2023/03/03 01:15:45;;;;;;;18.17;6.75;;;2.40;99.90;;;;;;5055002;28;20112;-70
2023/03/03 01:18:12;;;;;;;21.63;9.30;;;2.30;99.90;;;;;;5062215;28;20375;-71
2023/03/03 01:20:39;;;;;;;26.55;9.15;;;2.30;99.90;;;;;;5063746;28;20041;-60
2023/03/03 01:23:05;;;;;;;18.75;7.50;;;2.20;99.90;;;;;;5055778;28;20041;-61
2023/03/03 01:25:31;;;;;;;18.80;8.80;;;2.20;99.90;;;;;;5056302;28;20051;-61
2023/03/03 01:27:57;;;;;;;25.00;9.03;;;2.20;99.90;;;;;;5060587;28;20054;-60
2023/03/03 01:30:23;;;;;;;24.65;7.13;;;2.10;99.90;;;;;;5055847;28;20108;-60
2023/03/03 01:32:49;;;;;;;24.10;8.77;;;2.00;99.90;;;;;;5059173;28;20385;-61
2023/03/03 01:35:15;;;;;;;19.35;9.20;;;2.00;99.90;;;;;;5052932;28;20017;-72
2023/03/03 01:37:41;;;;;;;22.07;9.80;;;1.80;99.90;;;;;;5056066;28;20036;-61
2023/03/03 01:40:23;;;;;;;18.60;7.47;;;1.70;99.90;;;;;;5055205;28;20265;-60
2023/03/03 01:42:49;;;;;;;17.33;7.97;;;1.60;99.90;;;;;;5056132;28;20025;-60
2023/03/03 01:45:58;;;;;;;23.13;9.80;;;1.50;99.90;;;;;;5056668;28;20033;-72
2023/03/03 01:48:37;;;;;;;25.92;9.23;;;1.40;99.90;;;;;;4979452;28;20273;-72
2023/03/03 01:51:13;;;;;;;14.95;6.47;;;1.40;99.90;;;;;;5054796;28;20455;-71
2023/03/03 01:53:48;;;;;;;7.60;3.55;;;1.40;99.90;;;;;;5051462;28;20128;-60
2023/03/03 01:56:14;;;;;;;22.95;8.35;;;1.40;99.90;;;;;;5054260;28;20363;-70
2023/03/03 01:58:45;;;;;;;18.60;6.70;;;1.40;99.90;;;;;;5053706;28;20116;-61
2023/03/03 02:01:16;;;;;;;25.73;9.77;;;1.40;99.90;;;;;;5046464;28;20033;-71
2023/03/03 02:03:43;;;;;;;22.10;8.68;;;1.40;99.90;;;;;;5042859;28;20071;-60
2023/03/03 02:06:12;;;;;;;;;;;1.40;99.90;;;;;;5044892;28;20029;-60
2023/03/03 02:08:57;;;;;;;18.92;8.52;;;1.40;99.90;;;;;;5035371;28;19944;-61
2023/03/03 02:11:23;;;;;;;33.67;8.40;;;1.40;99.90;;;;;;5053553;28;20029;-72
2023/03/03 02:13:48;;;;;;;14.17;5.73;;;1.40;99.90;;;;;;5055275;28;20025;-60
2023/03/03 02:16:14;;;;;;;25.70;9.30;;;1.40;99.90;;;;;;5057309;28;20017;-72
2023/03/03 02:18:40;;;;;;;20.03;7.77;;;1.40;99.90;;;;;;5056294;28;20136;-60
2023/03/03 02:21:09;;;;;;;36.03;7.97;;;1.40;99.90;;;;;;5057824;28;20028;-60
2023/03/03 02:23:49;;;;;;;16.27;5.80;;;1.40;99.90;;;;;;5056729;28;20045;-60
2023/03/03 02:26:24;;;;;;;15.73;5.15;;;1.50;99.90;;;;;;5059214;28;20082;-71
2023/03/03 02:28:51;;;;;;;18.30;6.88;;;1.50;99.90;;;;;;5048049;28;20044;-60
2023/03/03 02:31:18;;;;;;;;;;;1.50;99.90;;;;;;5056658;28;20029;-61
2023/03/03 02:33:47;;;;;;;21.92;7.78;;;1.50;99.90;;;;;;5050702;28;19912;-60
2023/03/03 02:36:14;;;;;;;19.13;8.05;;;1.50;99.90;;;;;;5052814;28;20025;-71
2023/03/03 02:38:59;;;;;;;22.13;9.63;;;1.50;99.90;;;;;;5047832;28;20089;-60
2023/03/03 02:41:44;;;;;;;16.92;6.55;;;1.60;99.90;;;;;;5055410;28;20063;-60
2023/03/03 02:44:15;;;;;;;21.58;9.18;;;1.60;99.90;;;;;;5045707;28;20031;-61
2023/03/03 02:46:43;;;;;;;46.13;10.90;;;1.60;99.90;;;;;;5054872;28;20435;-61
2023/03/03 02:49:12;;;;;;;18.70;7.22;;;1.60;99.90;;;;;;5049338;28;20040;-60
2023/03/03 02:51:38;;;;;;;26.30;9.95;;;1.60;99.90;;;;;;5050588;28;20331;-60
2023/03/03 02:54:05;;;;;;;36.90;11.13;;;1.50;99.90;;;;;;5051048;28;20025;-72
2023/03/03 02:56:31;;;;;;;30.90;10.85;;;1.50;99.90;;;;;;5025262;28;20053;-60
2023/03/03 02:58:57;;;;;;;24.15;9.80;;;1.50;99.90;;;;;;5053629;28;20024;-60
2023/03/03 03:01:23;;;;;;;29.02;10.63;;;1.50;99.90;;;;;;5048127;28;20028;-60
2023/03/03 03:03:49;;;;;;;27.43;11.30;;;1.50;99.90;;;;;;5034205;28;20434;-60
2023/03/03 03:06:14;;;;;;;29.43;11.47;;;1.50;99.90;;;;;;5045258;28;20033;-72
2023/03/03 03:08:40;;;;;;;50.03;11.30;;;1.50;99.90;;;;;;5050063;28;20037;-60
2023/03/03 03:11:06;;;;;;;30.40;10.77;;;1.50;99.90;;;;;;5032867;28;20051;-60
2023/03/03 03:13:32;;;;;;;22.23;8.53;;;1.40;99.90;;;;;;5048727;28;20036;-61
2023/03/03 03:15:59;;;;;;;3.90;3.30;;;1.40;99.90;;;;;;5047145;28;20029;-60
2023/03/03 03:18:26;;;;;;;26.98;8.85;;;1.40;99.90;;;;;;5053966;28;20025;-60
2023/03/03 03:20:51;;;;;;;;;;;1.40;99.90;;;;;;5054991;28;20139;-71
2023/03/03 03:23:17;;;;;;;33.33;9.67;;;1.40;99.90;;;;;;5054054;28;19935;-61
2023/03/03 03:25:46;;;;;;;21.92;8.27;;;1.40;99.90;;;;;;5053868;28;20266;-60
2023/03/03 03:28:13;;;;;;;22.70;9.27;;;1.40;99.90;;;;;;5053511;28;20041;-70
2023/03/03 03:30:40;;;;;;;30.52;10.88;;;1.40;99.90;;;;;;5036487;28;20098;-61
2023/03/03 03:33:06;;;;;;;33.80;10.23;;;1.40;99.90;;;;;;5053489;28;20060;-60
2023/03/03 03:35:34;;;;;;;30.85;10.32;;;1.40;99.90;;;;;;5053835;28;20025;-61
2023/03/03 03:38:00;;;;;;;35.38;10.63;;;1.40;99.90;;;;;;5038962;28;20060;-61
2023/03/03 03:40:25;;;;;;;26.50;9.13;;;1.40;99.90;;;;;;5045700;28;20056;-60
2023/03/03 03:42:52;;;;;;;16.00;6.80;;;1.40;99.90;;;;;;5049380;28;20044;-61
2023/03/03 03:45:18;;;;;;;32.78;10.30;;;1.40;99.90;;;;;;5050885;28;21370;-61
2023/03/03 03:47:44;;;;;;;36.25;8.57;;;1.40;99.90;;;;;;5050531;28;20453;-61
2023/03/03 03:50:11;;;;;;;20.57;9.23;;;1.30;99.90;;;;;;5045450;28;20057;-69
2023/03/03 03:52:36;;;;;;;25.75;7.03;;;1.30;99.90;;;;;;5050669;28;20029;-60
2023/03/03 03:55:03;;;;;;;24.97;8.60;;;1.30;99.90;;;;;;5050312;28;20036;-60
2023/03/03 03:57:29;;;;;;;19.77;8.90;;;1.30;99.90;;;;;;5035020;28;20033;-61
2023/03/03 03:59:54;;;;;;;28.57;8.93;;;1.30;99.90;;;;;;5054336;28;20033;-60
2023/03/03 04:02:20;;;;;;;18.10;6.67;;;1.20;99.90;;;;;;5053166;28;20028;-60
2023/03/03 04:04:46;;;;;;;9.70;5.87;;;1.30;99.90;;;;;;5035270;28;20127;-60
2023/03/03 04:07:12;;;;;;;25.92;7.75;;;1.30;99.90;;;;;;5053006;28;20028;-70
2023/03/03 04:09:38;;;;;;;22.20;6.73;;;1.30;99.90;;;;;;5053712;28;20060;-61
2023/03/03 04:12:03;;;;;;;26.50;8.93;;;1.30;99.90;;;;;;5044898;28;20078;-60
2023/03/03 04:14:29;;;;;;;85.43;10.83;;;1.30;99.90;;;;;;5053070;28;20032;-71
2023/03/03 04:16:55;;;;;;;37.53;7.40;;;1.30;99.90;;;;;;5049883;28;20494;-60
2023/03/03 04:19:22;;;;;;;39.07;9.47;;;1.30;99.90;;;;;;5053227;28;20020;-60
2023/03/03 04:21:47;;;;;;;30.40;9.43;;;1.30;99.90;;;;;;5053788;28;20214;-60
2023/03/03 04:24:13;;;;;;;20.47;8.67;;;1.30;99.90;;;;;;5052961;28;20148;-70
2023/03/03 04:26:39;;;;;;;22.40;7.50;;;1.30;99.90;;;;;;5052370;28;20032;-60
2023/03/03 04:29:05;;;;;;;15.93;6.63;;;1.30;99.90;;;;;;5052993;28;20048;-60
2023/03/03 04:31:31;;;;;;;18.00;7.37;;;1.30;99.90;;;;;;5053296;28;20086;-61
2023/03/03 04:33:57;;;;;;;43.13;10.20;;;1.30;99.90;;;;;;5053735;28;20365;-61
2023/03/03 04:36:23;;;;;;;22.33;6.50;;;1.30;99.90;;;;;;5052983;28;20604;-61
2023/03/03 04:38:49;;;;;;;33.77;6.47;;;1.30;99.90;;;;;;5050651;28;20029;-60
2023/03/03 04:41:15;;;;;;;9.87;4.30;;;1.40;99.90;;;;;;5051463;28;20055;-72
2023/03/03 04:43:40;;;;;;;20.50;6.72;;;1.30;99.90;;;;;;5047168;28;20021;-60
2023/03/03 04:46:06;;;;;;;61.63;9.73;;;1.30;99.90;;;;;;5054670;28;20049;-60
2023/03/03 04:48:32;;;;;;;12.17;4.87;;;1.30;99.90;;;;;;5056784;28;20033;-61
2023/03/03 04:50:57;;;;;;;25.70;6.90;;;1.40;99.90;;;;;;5056931;28;20041;-60
2023/03/03 04:53:24;;;;;;;28.70;5.43;;;1.40;99.90;;;;;;5056417;28;20048;-61
2023/03/03 04:55:53;;;;;;;47.83;9.05;;;1.40;99.90;;;;;;5057067;28;20399;-60
2023/03/03 04:58:19;;;;;;;92.22;10.70;;;1.40;99.90;;;;;;5054985;28;20120;-61
2023/03/03 05:00:46;;;;;;;61.45;11.38;;;1.40;99.90;;;;;;5051088;28;20080;-61
2023/03/03 05:03:12;;;;;;;;;;;1.40;99.90;;;;;;5052585;28;20040;-71
2023/03/03 05:05:38;;;;;;;30.60;7.68;;;1.30;99.90;;;;;;5056334;28;19916;-60
2023/03/03 05:08:05;;;;;;;74.68;9.48;;;1.40;99.90;;;;;;5056046;28;20071;-61
2023/03/03 05:10:30;;;;;;;50.40;9.73;;;1.30;99.90;;;;;;5041282;28;20033;-61
2023/03/03 05:12:56;;;;;;;32.80;8.43;;;1.40;99.90;;;;;;5052087;28;20178;-60
2023/03/03 05:15:22;;;;;;;78.47;8.00;;;1.40;99.90;;;;;;5059259;28;20033;-60
2023/03/03 05:17:48;;;;;;;84.57;11.43;;;1.40;99.90;;;;;;5056873;28;20024;-61
2023/03/03 05:20:14;;;;;;;58.07;9.43;;;1.40;99.90;;;;;;5053532;28;20273;-71
2023/03/03 05:22:40;;;;;;;116.53;11.00;;;1.40;99.90;;;;;;5055860;28;20029;-60
2023/03/03 05:25:06;;;;;;;34.75;8.25;;;1.50;99.90;;;;;;5051969;28;20021;-61
2023/03/03 05:27:32;;;;;;;132.77;11.65;;;1.50;99.90;;;;;;5055633;28;20304;-61
2023/03/03 05:29:57;;;;;;;79.77;8.77;;;1.50;99.90;;;;;;5047256;28;20075;-61
2023/03/03 05:32:23;;;;;;;42.33;7.67;;;1.50;99.90;;;;;;5050172;28;20017;-71
2023/03/03 05:34:51;;;;;;;96.00;10.20;;;1.50;99.90;;;;;;5036568;28;20029;-61
2023/03/03 05:37:17;;;;;;;138.93;12.77;;;1.50;99.90;;;;;;5051779;28;20025;-61
2023/03/03 05:39:43;;;;;;;147.70;10.10;;;1.50;99.90;;;;;;5047856;28;20037;-61
2023/03/03 05:42:11;;;;;;;126.72;11.32;;;1.50;99.90;;;;;;5052226;28;20462;-61
2023/03/03 05:44:38;;;;;;;85.65;11.00;;;1.50;99.90;;;;;;5053035;28;20044;-61
2023/03/03 05:47:04;;;;;;;90.18;7.82;;;1.50;99.90;;;;;;5053842;28;20155;-61
2023/03/03 05:49:30;;;;;;;33.67;8.37;;;1.50;99.90;;;;;;5047937;28;20403;-71
2023/03/03 05:51:55;;;;;;;142.60;13.23;;;1.60;99.90;;;;;;5053251;28;20270;-61
2023/03/03 05:54:21;;;;;;;72.03;9.77;;;1.60;99.90;;;;;;5049824;28;20033;-61
2023/03/03 05:56:47;;;;;;;38.13;6.77;;;1.60;99.90;;;;;;5056515;28;20100;-61
2023/03/03 05:59:14;;;;;;;59.93;8.73;;;1.70;99.90;;;;;;5053144;28;20021;-71
2023/03/03 06:01:40;;;;;;;72.72;8.32;;;1.70;99.90;;;;;;5051631;28;20566;-60
2023/03/03 06:04:05;;;;;;;45.50;12.03;;;1.70;99.90;;;;;;5052251;28;20152;-61
2023/03/03 06:06:31;;;;;;;17.50;7.47;;;1.70;99.90;;;;;;5042558;28;20380;-71
2023/03/03 06:08:57;;;;;;;13.60;6.47;;;1.80;99.90;;;;;;5028407;28;20029;-61
2023/03/03 06:11:23;;;;;;;142.23;12.00;;;1.70;99.90;;;;;;5051244;28;20075;-61
2023/03/03 06:13:49;;;;;;;55.37;9.83;;;1.70;99.90;;;;;;5051651;28;20025;-61
2023/03/03 06:16:14;;;;;;;160.77;12.27;;;1.80;99.90;;;;;;5050659;28;20029;-70
2023/03/03 06:18:40;;;;;;;54.60;10.50;;;1.80;99.90;;;;;;5050449;28;20025;-61
2023/03/03 06:21:06;;;;;;;30.67;5.20;;;1.80;99.90;;;;;;5053221;28;20022;-60
2023/03/03 06:23:32;;;;;;;9.47;5.03;;;1.80;99.90;;;;;;5051295;28;20049;-60
2023/03/03 06:25:58;;;;;;;57.20;7.77;;;1.90;99.90;;;;;;5047981;28;20074;-61
2023/03/03 06:28:23;;;;;;;32.73;7.40;;;1.90;99.90;;;;;;5036814;28;20053;-61
2023/03/03 06:30:55;;;;;;;77.10;7.83;;;1.90;99.90;;;;;;5033057;28;20041;-61
2023/03/03 06:33:22;;;;;;;83.78;10.77;;;1.90;99.90;;;;;;5024476;28;20026;-61
2023/03/03 06:35:52;;;;;;;121.03;10.35;;;1.90;99.90;;;;;;5032089;28;20036;-60
2023/03/03 06:38:18;;;;;;;40.38;8.65;;;1.90;99.90;;;;;;5033597;28;20044;-61
2023/03/03 06:40:45;;;;;;;47.70;10.63;;;2.00;99.90;;;;;;5028779;28;20025;-70
2023/03/03 06:43:12;;;;;;;43.33;9.63;;;2.00;99.90;;;;;;5030588;28;20385;-70
2023/03/03 06:45:37;;;;;;;43.10;10.25;;;2.00;99.90;;;;;;5031138;28;20344;-61
2023/03/03 06:48:04;;;;;;;83.50;10.30;;;2.00;99.90;;;;;;5032244;28;20029;-60
2023/03/03 06:50:30;;;;;;;81.18;10.38;;;2.00;99.90;;;;;;5036791;28;20289;-61
2023/03/03 06:53:16;;;;;;;40.23;7.93;;;2.00;99.90;;;;;;5028389;28;20100;-61
2023/03/03 06:55:43;;;;;;;99.40;10.95;;;2.10;99.90;;;;;;5027649;28;20033;-61
2023/03/03 06:58:18;;;;;;;18.80;6.40;;;2.10;99.90;;;;;;5030487;28;20024;-61
2023/03/03 07:00:58;;;;;;;12.05;5.28;;;2.10;99.90;;;;;;5031409;28;20423;-60
2023/03/03 07:03:32;;;;;;;15.48;7.43;;;2.10;99.90;;;;;;5032704;28;20044;-72
2023/03/03 07:05:58;;;;;;;50.95;8.93;;;2.10;99.90;;;;;;5035181;28;20095;-61
2023/03/03 07:08:26;;;;;;;31.30;6.63;;;2.10;99.90;;;;;;5033932;28;20458;-61
2023/03/03 07:10:53;;;;;;;74.28;9.77;;;2.20;99.90;;;;;;5033034;28;20274;-61
2023/03/03 07:13:20;;;;;;;27.83;8.18;;;2.20;99.90;;;;;;5029447;28;20040;-61
2023/03/03 07:15:47;;;;;;;27.20;8.07;;;2.30;99.90;;;;;;5037580;28;20033;-61
2023/03/03 07:18:51;;;;;;;20.65;7.90;;;2.30;99.90;;;;;;5026359;28;20312;-71
2023/03/03 07:21:19;;;;;;;13.63;7.13;;;2.30;99.90;;;;;;5026415;28;20412;-61
2023/03/03 07:23:47;;;;;;;15.38;6.60;;;2.40;99.90;;;;;;5036674;28;20043;-61
2023/03/03 07:26:29;;;;;;;11.25;5.60;;;2.40;99.90;;;;;;5033966;28;20029;-72
2023/03/03 07:29:14;;;;;;;18.73;8.07;;;2.40;99.90;;;;;;5031469;28;20088;-61
2023/03/03 07:31:40;;;;;;;17.25;8.68;;;2.50;99.90;;;;;;5032696;28;20068;-61
2023/03/03 07:34:49;;;;;;;19.92;7.22;;;2.50;99.90;;;;;;5039190;28;20098;-62
2023/03/03 07:37:37;;;;;;;28.08;10.20;;;2.50;99.90;;;;;;4972716;28;20110;-72
2023/03/03 07:40:49;;;;;;;22.85;9.00;;;2.60;99.90;;;;;;4973281;28;20445;-61
2023/03/03 07:43:42;;;;;;;25.73;10.35;;;2.70;99.90;;;;;;4964367;28;20458;-71
2023/03/03 07:46:13;;;;;;;26.30;9.27;;;2.70;99.90;;;;;;4977830;28;20039;-61
2023/03/03 07:48:41;;;;;;;23.77;9.93;;;2.80;99.90;;;;;;4976541;28;20460;-61
2023/03/03 07:51:28;;;;;;;24.88;8.55;;;2.80;99.90;;;;;;4967032;28;20440;-62
2023/03/03 07:53:59;;;;;;;;;;;2.80;99.90;;;;;;4970736;28;20097;-61
2023/03/03 07:56:29;;;;;;;20.45;7.38;;;2.90;99.90;;;;;;4967324;28;19910;-70
2023/03/03 07:58:56;;;;;;;20.65;8.40;;;2.80;99.90;;;;;;4975832;28;20459;-62
2023/03/03 08:01:38;;;;;;;25.65;9.40;;;2.90;99.90;;;;;;4971149;28;20031;-61
2023/03/03 08:04:15;;;;;;;22.77;9.05;;;3.00;99.90;;;;;;4974614;28;20059;-61
2023/03/03 08:06:45;;;;;;;20.67;8.38;;;3.20;99.90;;;;;;4976505;28;20065;-61
2023/03/03 08:09:11;;;;;;;14.93;6.85;;;3.50;99.90;;;;;;4973317;28;20027;-70
2023/03/03 08:11:58;;;;;;;17.57;8.53;;;3.50;99.90;;;;;;5013407;28;20083;-61
2023/03/03 08:14:34;;;;;;;17.88;7.93;;;3.50;99.90;;;;;;5032077;28;20037;-61
2023/03/03 08:17:00;;;;;;;14.80;7.07;;;3.70;99.90;;;;;;5031914;28;20116;-69
2023/03/03 08:19:28;;;;;;;15.75;7.43;;;3.60;99.90;;;;;;5034251;28;20029;-61
2023/03/03 08:22:13;;;;;;;15.88;7.28;;;3.40;99.90;;;;;;5032308;28;20088;-71
2023/03/03 08:24:39;;;;;;;14.70;6.53;;;3.30;99.90;;;;;;5020129;28;20378;-71
2023/03/03 08:27:04;;;;;;;15.73;7.13;;;3.40;99.90;;;;;;5032279;28;20079;-61
2023/03/03 08:29:30;;;;;;;12.50;6.30;;;3.50;99.90;;;;;;5052913;28;20049;-61
2023/03/03 08:31:56;;;;;;;27.13;7.93;;;3.60;99.90;;;;;;5036253;28;20698;-61
2023/03/03 08:34:23;;;;;;;14.63;6.47;;;3.70;99.90;;;;;;5021889;28;20331;-61
2023/03/03 08:36:49;;;;;;;;;;;3.70;99.90;;;;;;5055948;28;20371;-61
2023/03/03 08:39:15;;;;;;;12.57;6.23;;;3.90;99.90;;;;;;5051923;28;19909;-72
2023/03/03 08:41:43;;;;;;;14.17;6.13;;;3.80;99.90;;;;;;5055576;28;20285;-61
2023/03/03 08:44:09;;;;;;;14.55;7.13;;;3.70;99.90;;;;;;5061331;28;20346;-61
2023/03/03 08:46:36;;;;;;;15.88;7.30;;;3.70;99.90;;;;;;5049924;28;20036;-61
2023/03/03 08:49:34;;;;;;;15.27;6.53;;;3.80;99.90;;;;;;5051678;28;20045;-61
2023/03/03 08:51:59;;;;;;;17.67;7.72;;;4.00;99.90;;;;;;5059870;28;20511;-62
2023/03/03 08:54:26;;;;;;;20.50;7.77;;;4.20;99.90;;;;;;5034713;28;20128;-61
2023/03/03 08:56:52;;;;;;;15.88;5.82;;;4.10;99.90;;;;;;5050134;28;20017;-61
2023/03/03 08:59:19;;;;;;;21.13;9.20;;;4.30;99.90;;;;;;5052187;28;20442;-62
2023/03/03 09:01:45;;;;;;;17.38;7.63;;;4.80;99.90;;;;;;5032948;28;20098;-62
2023/03/03 09:04:11;;;;;;;15.20;7.33;;;4.80;99.90;;;;;;5048609;28;20029;-71
2023/03/03 09:06:36;;;;;;;19.27;8.30;;;4.70;99.90;;;;;;5049431;28;20029;-63
2023/03/03 09:09:03;;;;;;;17.20;7.90;;;4.60;99.90;;;;;;5052796;28;20032;-71
2023/03/03 09:11:29;;;;;;;20.27;8.25;;;5.00;99.90;;;;;;5044792;28;20111;-71
2023/03/03 09:14:16;;;;;;;14.48;6.70;;;5.70;99.90;;;;;;5050149;28;20032;-61
2023/03/03 09:16:52;;;;;;;19.70;8.55;;;6.20;99.90;;;;;;5049010;28;20028;-62
2023/03/03 09:19:26;;;;;;;12.23;5.75;;;6.30;99.90;;;;;;5057972;28;20053;-63
2023/03/03 09:21:53;;;;;;;15.50;6.90;;;6.60;99.90;;;;;;5057541;28;20033;-61
2023/03/03 09:24:30;;;;;;;12.73;6.75;;;7.00;99.90;;;;;;5052058;28;20032;-62
2023/03/03 09:26:57;;;;;;;;;;;6.60;99.90;;;;;;5050933;28;20041;-62
2023/03/03 09:29:36;;;;;;;12.00;6.13;;;6.00;99.90;;;;;;5050491;28;19924;-62
2023/03/03 09:32:30;;;;;;;14.65;6.00;;;5.60;99.90;;;;;;5047628;28;20029;-62
2023/03/03 09:34:56;;;;;;;16.10;6.80;;;5.60;99.90;;;;;;5039872;28;20048;-66
2023/03/03 09:37:33;;;;;;;13.00;6.07;;;5.30;99.90;;;;;;5045299;28;20078;-62
2023/03/03 09:39:59;;;;;;;13.82;5.63;;;5.20;99.90;;;;;;5050288;28;20032;-62
2023/03/03 09:42:46;;;;;;;10.20;5.67;;;5.00;99.90;;;;;;5057734;28;20029;-71
2023/03/03 09:45:49;;;;;;;10.52;4.80;;;5.90;99.90;;;;;;5047818;28;20302;-72
2023/03/03 09:48:56;;;;;;;13.85;4.38;;;6.50;99.90;;;;;;5055064;28;20029;-72
2023/03/03 09:51:40;;;;;;;9.93;4.65;;;6.50;99.90;;;;;;5058070;28;20151;-62
2023/03/03 09:54:24;;;;;;;13.27;5.82;;;7.10;99.90;;;;;;5053002;28;20033;-69
2023/03/03 09:57:12;;;;;;;6.60;4.43;;;7.40;99.90;;;;;;5039919;28;20029;-61
2023/03/03 10:00:00;;;;;;;7.40;4.15;;;7.50;99.90;;;;;;5055710;28;20035;-62
2023/03/03 10:02:37;;;;;;;10.35;5.05;;;7.80;99.90;;;;;;5053825;28;20600;-62
2023/03/03 10:05:37;;;;;;;7.28;4.28;;;7.60;99.90;;;;;;5046878;28;20104;-61
2023/03/03 10:08:43;;;;;;;9.57;4.72;;;7.60;99.90;;;;;;5050718;28;20437;-65
2023/03/03 10:11:08;;;;;;;;;;;7.60;99.90;;;;;;5044809;28;20107;-71
2023/03/03 10:14:12;;;;;;;7.20;3.67;;;8.10;99.90;;;;;;5049668;28;19999;-62
2023/03/03 10:16:53;;;;;;;8.68;4.47;;;8.30;99.90;;;;;;5024410;28;20431;-63
2023/03/03 10:19:41;;;;;;;10.00;4.43;;;8.00;99.90;;;;;;5049792;28;20027;-63
2023/03/03 10:22:28;;;;;;;11.52;3.45;;;8.60;99.90;;;;;;5049307;28;20027;-61
2023/03/03 10:25:17;;;;;;;7.25;3.60;;;8.10;99.90;;;;;;5055336;28;20027;-62
2023/03/03 10:28:04;;;;;;;10.77;4.25;;;7.90;99.90;;;;;;5051026;28;20428;-62
2023/03/03 10:30:32;;;;;;;;;;;7.50;99.90;;;;;;5052427;28;20436;-62
2023/03/03 10:33:02;;;;;;;7.38;3.60;;;7.40;99.90;;;;;;5055071;28;20320;-61
2023/03/03 10:35:44;;;;;;;5.10;3.13;;;7.40;99.90;;;;;;5057737;28;20030;-62
2023/03/03 10:38:16;;;;;;;5.88;3.53;;;7.30;99.90;;;;;;5049445;28;20021;-67
2023/03/03 10:40:51;;;;;;;10.70;3.20;;;7.40;99.90;;;;;;5044042;28;20024;-61
2023/03/03 10:43:29;;;;;;;5.13;2.60;;;7.20;99.90;;;;;;5048785;28;20025;-63
2023/03/03 10:46:14;;;;;;;5.68;3.20;;;7.00;99.90;;;;;;5053860;28;20033;-72
2023/03/03 10:49:15;;;;;;;6.18;3.38;;;7.10;99.90;;;;;;5056604;28;20135;-63
2023/03/03 10:51:49;;;;;;;6.40;3.08;;;7.10;99.90;;;;;;5051095;28;20083;-61
2023/03/03 10:54:42;;;;;;;4.80;2.78;;;7.20;99.90;;;;;;5058740;28;20037;-72
2023/03/03 10:57:23;;;;;;;8.48;2.85;;;7.20;99.90;;;;;;5054786;28;20025;-71
2023/03/03 11:00:15;;;;;;;8.05;2.95;;;7.40;99.90;;;;;;5054820;28;20079;-62
2023/03/03 11:02:57;;;;;;;6.28;2.97;;;7.40;99.90;;;;;;5053278;28;20040;-62
2023/03/03 11:05:47;;;;;;;5.72;2.50;;;7.30;99.90;;;;;;5052334;28;20033;-73
2023/03/03 11:08:17;;;;;;;7.88;2.95;;;7.30;99.90;;;;;;5053177;28;20029;-62
2023/03/03 11:11:10;;;;;;;4.60;2.50;;;7.40;99.90;;;;;;5051878;28;20016;-63
2023/03/03 11:13:39;;;;;;;3.28;2.08;;;7.40;99.90;;;;;;5052328;28;20061;-62
2023/03/03 11:16:29;;;;;;;1.85;1.05;;;7.60;99.90;;;;;;5044113;28;20064;-62
2023/03/03 11:19:30;;;;;;;3.95;1.05;;;7.70;99.90;;;;;;5045455;28;20415;-73
2023/03/03 11:21:59;;;;;;;8.20;2.08;;;7.80;99.90;;;;;;5052258;28;20079;-61
2023/03/03 11:24:37;;;;;;;2.28;1.33;;;7.90;99.90;;;;;;5053269;28;20060;-61
2023/03/03 11:27:31;;;;;;;4.97;1.35;;;7.90;99.90;;;;;;5054225;28;20039;-64
2023/03/03 11:30:34;;;;;;;3.80;1.98;;;8.00;99.90;;;;;;5051247;28;20857;-61
2023/03/03 11:33:06;;;;;;;2.83;1.08;;;8.10;99.90;;;;;;5060849;28;20071;-61
2023/03/03 11:35:50;;;;;;;4.78;1.92;;;8.10;99.90;;;;;;5043879;28;20045;-62
2023/03/03 11:38:53;;;;;;;1.40;0.90;;;8.00;99.90;;;;;;5049474;28;20384;-71
2023/03/03 11:41:42;;;;;;;2.05;0.60;;;7.90;99.90;;;;;;5040779;28;20039;-62
2023/03/03 11:44:37;;;;;;;2.13;0.80;;;7.70;99.90;;;;;;5044708;28;20025;-62
2023/03/03 11:47:03;;;;;;;1.30;1.00;;;7.80;99.90;;;;;;5054885;28;20319;-62
2023/03/03 11:49:29;;;;;;;2.70;1.10;;;7.60;99.90;;;;;;5047255;28;20037;-62
2023/03/03 11:52:01;;;;;;;7.43;0.90;;;7.60;99.90;;;;;;5031017;28;20029;-61
2023/03/03 11:54:45;;;;;;;7.93;1.17;;;7.70;99.90;;;;;;5050212;28;20547;-61
2023/03/03 11:57:36;;;;;;;1.95;1.08;;;8.00;99.90;;;;;;5054822;28;20017;-62
2023/03/03 12:00:27;;;;;;;4.93;1.05;;;7.50;99.90;;;;;;5051817;28;20021;-62
2023/03/03 12:03:09;;;;;;;4.68;1.50;;;7.30;99.90;;;;;;5044903;28;20040;-61
2023/03/03 12:05:53;;;;;;;1.10;0.60;;;7.40;99.90;;;;;;5046683;28;20037;-71
2023/03/03 12:08:34;;;;;;;3.97;0.93;;;7.50;99.90;;;;;;5050113;28;20029;-63
2023/03/03 12:11:24;;;;;;;3.15;0.65;;;7.70;99.90;;;;;;5051122;28;20284;-62
2023/03/03 12:14:32;;;;;;;9.70;1.00;;;7.90;99.90;;;;;;5055444;28;20090;-62
2023/03/03 12:17:04;;;;;;;1.38;0.70;;;8.00;99.90;;;;;;5031471;28;20366;-61
2023/03/03 12:19:47;;;;;;;4.50;1.60;;;8.10;99.90;;;;;;5050599;28;20419;-63
2023/03/03 12:22:19;;;;;;;0.80;0.70;;;8.20;99.90;;;;;;5050898;28;20036;-73
2023/03/03 12:25:04;;;;;;;1.15;0.70;;;8.20;99.90;;;;;;5058393;28;20448;-62
2023/03/03 12:27:53;;;;;;;0.82;0.60;;;8.00;99.90;;;;;;5058200;28;20061;-62
2023/03/03 12:30:25;;;;;;;4.38;0.60;;;7.80;99.90;;;;;;5052770;28;20032;-62
2023/03/03 12:33:09;;;;;;;1.20;0.85;;;7.70;99.90;;;;;;5053678;28;20401;-62
2023/03/03 12:35:47;;;;;;;1.02;0.73;;;7.60;99.90;;;;;;5050773;28;20021;-67
2023/03/03 12:38:39;;;;;;;3.25;0.80;;;7.70;99.90;;;;;;5046637;28;20036;-73
2023/03/03 12:41:31;;;;;;;4.15;1.67;;;7.60;99.90;;;;;;5051766;28;20032;-75
2023/03/03 12:44:21;;;;;;;3.85;0.82;;;7.50;99.90;;;;;;5051567;28;20025;-61
2023/03/03 12:46:56;;;;;;;10.25;0.88;;;7.60;99.90;;;;;;5051705;28;21290;-61
2023/03/03 12:49:32;;;;;;;1.10;0.50;;;7.50;99.90;;;;;;5058473;28;20327;-62
2023/03/03 12:52:12;;;;;;;1.85;0.70;;;7.50;99.90;;;;;;5045547;28;20033;-61
2023/03/03 12:54:49;;;;;;;1.08;0.75;;;7.50;99.90;;;;;;5061472;28;20055;-61
2023/03/03 12:57:20;;;;;;;;;;;7.50;99.90;;;;;;5055271;28;20026;-72
2023/03/03 13:00:21;;;;;;;1.95;0.68;;;7.60;99.90;;;;;;5029730;28;19916;-67
2023/03/03 13:03:05;;;;;;;0.25;0.25;;;7.50;99.90;;;;;;5059355;28;20051;-61
2023/03/03 13:06:00;;;;;;;6.18;1.23;;;7.40;99.90;;;;;;5064846;28;20022;-61
2023/03/03 13:08:53;;;;;;;0.70;0.38;;;7.40;99.90;;;;;;5049878;28;20031;-61
2023/03/03 13:11:34;;;;;;;0.20;0.20;;;7.40;99.90;;;;;;5044514;28;20311;-61
2023/03/03 13:14:24;;;;;;;2.90;1.20;;;7.50;99.90;;;;;;5052406;28;20029;-61
2023/03/03 13:17:13;;;;;;;1.48;0.80;;;7.20;99.90;;;;;;5060950;28;20102;-61
2023/03/03 13:20:00;;;;;;;1.42;0.45;;;7.20;99.90;;;;;;5053410;28;20034;-62
2023/03/03 13:23:06;;;;;;;1.73;0.70;;;7.10;99.90;;;;;;5049437;28;20113;-61
2023/03/03 13:25:35;;;;;;;1.83;0.65;;;7.10;99.90;;;;;;4984084;28;20026;-61